sensor_id;sensor_type;location;lat;lon;timestamp;temperature;humidity
10905;DHT22;5505;51.450;9.254;2023-02-11T00:01:20;3.40;99.90
10905;DHT22;5505;51.450;9.254;2023-02-11T00:04:08;2.70;99.90
10905;DHT22;5505;51.450;9.254;2023-02-11T00:06:55;2.50;99.90
10905;DHT22;5505;51.450;9.254;2023-02-11T00:09:41;2.50;99.90
10905;DHT22;5505;51.450;9.254;2023-02-11T00:12:28;2.50;99.90
10905;DHT22;5505;51.450;9.254;2023-02-11T00:15:17;2.50;99.90
10905;DHT22;5505;51.450;9.254;2023-02-11T00:18:05;2.50;99.90
10905;DHT22;5505;51.450;9.254;2023-02-11T00:20:52;2.40;99.90
10905;DHT22;5505;51.450;9.254;2023-02-11T00:23:39;2.40;99.90
10905;DHT22;5505;51.450;9.254;2023-02-11T00:26:27;2.30;99.90
10905;DHT22;5505;51.450;9.254;2023-02-11T00:29:15;2.30;99.90
10905;DHT22;5505;51.450;9.254;2023-02-11T00:32:03;2.20;99.90
10905;DHT22;5505;51.450;9.254;2023-02-11T00:34:51;2.30;99.90
10905;DHT22;5505;51.450;9.254;2023-02-11T00:37:39;2.30;99.90
10905;DHT22;5505;51.450;9.254;2023-02-11T00:40:26;3.40;99.90
10905;DHT22;5505;51.450;9.254;2023-02-11T00:43:13;2.40;99.90
10905;DHT22;5505;51.450;9.254;2023-02-11T00:46:00;2.40;99.90
10905;DHT22;5505;51.450;9.254;2023-02-11T00:48:48;2.40;99.90
10905;DHT22;5505;51.450;9.254;2023-02-11T00:51:36;2.50;99.90
10905;DHT22;5505;51.450;9.254;2023-02-11T00:54:23;2.50;99.90
10905;DHT22;5505;51.450;9.254;2023-02-11T00:57:09;2.50;99.90
10905;DHT22;5505;51.450;9.254;2023-02-11T00:59:56;2.60;99.90
10905;DHT22;5505;51.450;9.254;2023-02-11T01:02:43;2.60;99.90
10905;DHT22;5505;51.450;9.254;2023-02-11T01:05:31;2.50;99.90
10905;DHT22;5505;51.450;9.254;2023-02-11T01:08:18;3.90;99.90
10905;DHT22;5505;51.450;9.254;2023-02-11T01:11:06;2.50;99.90
10905;DHT22;5505;51.450;9.254;2023-02-11T01:13:57;2.50;99.90
10905;DHT22;5505;51.450;9.254;2023-02-11T01:16:43;2.50;99.90
10905;DHT22;5505;51.450;9.254;2023-02-11T01:19:30;2.50;99.90
10905;DHT22;5505;51.450;9.254;2023-02-11T01:22:18;2.50;99.90
10905;DHT22;5505;51.450;9.254;2023-02-11T01:25:06;2.50;99.90
10905;DHT22;5505;51.450;9.254;2023-02-11T01:27:53;2.50;99.90
10905;DHT22;5505;51.450;9.254;2023-02-11T01:30:40;2.50;99.90
10905;DHT22;5505;51.450;9.254;2023-02-11T01:33:27;2.50;99.90
10905;DHT22;5505;51.450;9.254;2023-02-11T01:36:13;2.50;99.90
10905;DHT22;5505;51.450;9.254;2023-02-11T01:39:02;2.40;99.90
10905;DHT22;5505;51.450;9.254;2023-02-11T01:41:49;2.40;99.90
10905;DHT22;5505;51.450;9.254;2023-02-11T01:44:38;2.50;99.90
10905;DHT22;5505;51.450;9.254;2023-02-11T01:47:24;2.60;99.90
10905;DHT22;5505;51.450;9.254;2023-02-11T01:50:11;2.50;99.90
10905;DHT22;5505;51.450;9.254;2023-02-11T01:52:58;2.50;99.90
10905;DHT22;5505;51.450;9.254;2023-02-11T01:56:07;2.50;99.90
10905;DHT22;5505;51.450;9.254;2023-02-11T01:59:23;2.50;99.90
10905;DHT22;5505;51.450;9.254;2023-02-11T02:02:15;2.80;99.90
10905;DHT22;5505;51.450;9.254;2023-02-11T02:05:08;2.90;99.90
10905;DHT22;5505;51.450;9.254;2023-02-11T02:08:01;2.80;99.90
10905;DHT22;5505;51.450;9.254;2023-02-11T02:10:51;2.70;99.90
10905;DHT22;5505;51.450;9.254;2023-02-11T02:13:42;2.70;99.90
10905;DHT22;5505;51.450;9.254;2023-02-11T02:16:31;2.70;99.90
10905;DHT22;5505;51.450;9.254;2023-02-11T02:19:39;2.70;99.90
10905;DHT22;5505;51.450;9.254;2023-02-11T02:29:59;2.70;99.90
10905;DHT22;5505;51.450;9.254;2023-02-11T02:33:00;2.70;99.90
10905;DHT22;5505;51.450;9.254;2023-02-11T02:35:57;2.80;99.90
10905;DHT22;5505;51.450;9.254;2023-02-11T02:38:52;2.80;99.90
10905;DHT22;5505;51.450;9.254;2023-02-11T02:41:40;3.00;99.90
10905;DHT22;5505;51.450;9.254;2023-02-11T02:44:29;2.90;99.90
10905;DHT22;5505;51.450;9.254;2023-02-11T02:47:15;2.90;99.90
10905;DHT22;5505;51.450;9.254;2023-02-11T02:50:05;2.90;99.90
10905;DHT22;5505;51.450;9.254;2023-02-11T02:52:58;2.90;99.90
10905;DHT22;5505;51.450;9.254;2023-02-11T02:55:55;2.90;99.90
10905;DHT22;5505;51.450;9.254;2023-02-11T02:58:56;3.40;99.90
10905;DHT22;5505;51.450;9.254;2023-02-11T03:01:51;2.90;99.90
10905;DHT22;5505;51.450;9.254;2023-02-11T03:04:49;2.90;99.90
10905;DHT22;5505;51.450;9.254;2023-02-11T03:07:41;2.90;99.90
10905;DHT22;5505;51.450;9.254;2023-02-11T03:10:31;2.90;99.90
10905;DHT22;5505;51.450;9.254;2023-02-11T03:13:24;2.90;99.90
10905;DHT22;5505;51.450;9.254;2023-02-11T03:16:14;2.80;99.90
10905;DHT22;5505;51.450;9.254;2023-02-11T03:19:05;2.90;99.90
10905;DHT22;5505;51.450;9.254;2023-02-11T03:21:55;2.90;99.90
10905;DHT22;5505;51.450;9.254;2023-02-11T03:24:45;3.00;99.90
10905;DHT22;5505;51.450;9.254;2023-02-11T03:27:36;2.90;99.90
10905;DHT22;5505;51.450;9.254;2023-02-11T03:30:26;2.90;99.90
10905;DHT22;5505;51.450;9.254;2023-02-11T03:33:21;3.00;99.90
10905;DHT22;5505;51.450;9.254;2023-02-11T03:36:12;3.00;99.90
10905;DHT22;5505;51.450;9.254;2023-02-11T03:39:02;3.00;99.90
10905;DHT22;5505;51.450;9.254;2023-02-11T03:41:54;3.00;99.90
10905;DHT22;5505;51.450;9.254;2023-02-11T03:44:45;3.00;99.90
10905;DHT22;5505;51.450;9.254;2023-02-11T03:47:37;3.00;99.90
10905;DHT22;5505;51.450;9.254;2023-02-11T03:50:25;3.00;99.90
10905;DHT22;5505;51.450;9.254;2023-02-11T03:53:14;3.00;99.90
10905;DHT22;5505;51.450;9.254;2023-02-11T03:56:05;3.00;99.90
10905;DHT22;5505;51.450;9.254;2023-02-11T03:58:55;3.00;99.90
10905;DHT22;5505;51.450;9.254;2023-02-11T04:01:42;3.00;99.90
10905;DHT22;5505;51.450;9.254;2023-02-11T04:04:28;3.10;99.90
10905;DHT22;5505;51.450;9.254;2023-02-11T04:07:15;3.10;99.90
10905;DHT22;5505;51.450;9.254;2023-02-11T04:10:03;3.00;99.90
10905;DHT22;5505;51.450;9.254;2023-02-11T04:12:50;3.00;99.90
10905;DHT22;5505;51.450;9.254;2023-02-11T04:15:39;3.00;99.90
10905;DHT22;5505;51.450;9.254;2023-02-11T04:18:26;3.00;99.90
10905;DHT22;5505;51.450;9.254;2023-02-11T04:21:12;3.10;99.90
10905;DHT22;5505;51.450;9.254;2023-02-11T04:23:59;3.00;99.90
10905;DHT22;5505;51.450;9.254;2023-02-11T04:26:46;3.00;99.90
10905;DHT22;5505;51.450;9.254;2023-02-11T04:29:33;3.00;99.90
10905;DHT22;5505;51.450;9.254;2023-02-11T04:32:21;3.20;99.90
10905;DHT22;5505;51.450;9.254;2023-02-11T04:35:08;3.00;99.90
10905;DHT22;5505;51.450;9.254;2023-02-11T04:37:54;3.40;99.90
10905;DHT22;5505;51.450;9.254;2023-02-11T04:40:41;5.10;99.90
10905;DHT22;5505;51.450;9.254;2023-02-11T04:43:28;3.10;99.90
10905;DHT22;5505;51.450;9.254;2023-02-11T04:46:15;4.30;99.90
10905;DHT22;5505;51.450;9.254;2023-02-11T04:49:03;3.10;99.90
10905;DHT22;5505;51.450;9.254;2023-02-11T04:51:50;3.10;99.90
10905;DHT22;5505;51.450;9.254;2023-02-11T04:54:37;3.10;99.90
10905;DHT22;5505;51.450;9.254;2023-02-11T04:57:24;3.20;99.90
10905;DHT22;5505;51.450;9.254;2023-02-11T05:00:12;3.20;99.90
10905;DHT22;5505;51.450;9.254;2023-02-11T05:02:58;3.20;99.90
10905;DHT22;5505;51.450;9.254;2023-02-11T05:05:47;3.30;99.90
10905;DHT22;5505;51.450;9.254;2023-02-11T05:08:33;3.30;99.90
10905;DHT22;5505;51.450;9.254;2023-02-11T05:11:22;3.30;99.90
10905;DHT22;5505;51.450;9.254;2023-02-11T05:14:09;3.40;99.90
10905;DHT22;5505;51.450;9.254;2023-02-11T05:16:56;3.40;99.90
10905;DHT22;5505;51.450;9.254;2023-02-11T05:19:43;3.50;99.90
10905;DHT22;5505;51.450;9.254;2023-02-11T05:22:31;3.50;99.90
10905;DHT22;5505;51.450;9.254;2023-02-11T05:25:18;3.50;99.90
10905;DHT22;5505;51.450;9.254;2023-02-11T05:28:05;3.60;99.90
10905;DHT22;5505;51.450;9.254;2023-02-11T05:30:52;3.70;99.90
10905;DHT22;5505;51.450;9.254;2023-02-11T05:33:39;3.80;99.90
10905;DHT22;5505;51.450;9.254;2023-02-11T05:36:26;3.80;99.90
10905;DHT22;5505;51.450;9.254;2023-02-11T05:39:14;3.90;99.90
10905;DHT22;5505;51.450;9.254;2023-02-11T05:42:01;3.90;99.90
10905;DHT22;5505;51.450;9.254;2023-02-11T05:44:48;4.00;99.90
10905;DHT22;5505;51.450;9.254;2023-02-11T05:47:35;4.00;99.90
10905;DHT22;5505;51.450;9.254;2023-02-11T05:50:21;4.10;99.90
10905;DHT22;5505;51.450;9.254;2023-02-11T05:53:08;4.10;99.90
10905;DHT22;5505;51.450;9.254;2023-02-11T05:55:56;4.20;99.90
10905;DHT22;5505;51.450;9.254;2023-02-11T05:58:43;6.70;99.90
10905;DHT22;5505;51.450;9.254;2023-02-11T06:01:30;4.20;99.90
10905;DHT22;5505;51.450;9.254;2023-02-11T06:04:17;5.40;99.90
10905;DHT22;5505;51.450;9.254;2023-02-11T06:07:03;4.30;99.90
10905;DHT22;5505;51.450;9.254;2023-02-11T06:09:50;4.40;99.90
10905;DHT22;5505;51.450;9.254;2023-02-11T06:12:38;4.40;99.90
10905;DHT22;5505;51.450;9.254;2023-02-11T06:15:25;4.40;99.90
10905;DHT22;5505;51.450;9.254;2023-02-11T06:18:12;4.40;99.90
10905;DHT22;5505;51.450;9.254;2023-02-11T06:20:59;4.70;99.90
10905;DHT22;5505;51.450;9.254;2023-02-11T06:23:45;4.40;99.90
10905;DHT22;5505;51.450;9.254;2023-02-11T06:26:33;4.40;99.90
10905;DHT22;5505;51.450;9.254;2023-02-11T06:29:21;4.40;99.90
10905;DHT22;5505;51.450;9.254;2023-02-11T06:32:08;4.40;99.90
10905;DHT22;5505;51.450;9.254;2023-02-11T06:34:55;5.20;99.90
10905;DHT22;5505;51.450;9.254;2023-02-11T06:37:42;4.40;99.90
10905;DHT22;5505;51.450;9.254;2023-02-11T06:40:29;4.50;99.90
10905;DHT22;5505;51.450;9.254;2023-02-11T06:43:16;4.50;99.90
10905;DHT22;5505;51.450;9.254;2023-02-11T06:46:04;4.50;99.90
10905;DHT22;5505;51.450;9.254;2023-02-11T06:48:51;4.70;99.90
10905;DHT22;5505;51.450;9.254;2023-02-11T06:51:38;4.60;99.90
10905;DHT22;5505;51.450;9.254;2023-02-11T06:54:25;4.60;99.90
10905;DHT22;5505;51.450;9.254;2023-02-11T06:57:11;4.60;99.90
10905;DHT22;5505;51.450;9.254;2023-02-11T06:59:58;6.10;99.90
10905;DHT22;5505;51.450;9.254;2023-02-11T07:02:46;4.60;99.90
10905;DHT22;5505;51.450;9.254;2023-02-11T07:05:33;4.60;99.90
10905;DHT22;5505;51.450;9.254;2023-02-11T07:08:21;4.60;99.90
10905;DHT22;5505;51.450;9.254;2023-02-11T07:11:09;4.60;99.90
10905;DHT22;5505;51.450;9.254;2023-02-11T07:14:00;4.70;99.90
10905;DHT22;5505;51.450;9.254;2023-02-11T07:16:47;4.70;99.90
10905;DHT22;5505;51.450;9.254;2023-02-11T07:19:35;4.70;99.90
10905;DHT22;5505;51.450;9.254;2023-02-11T07:22:22;4.80;99.90
10905;DHT22;5505;51.450;9.254;2023-02-11T07:25:09;4.80;99.90
10905;DHT22;5505;51.450;9.254;2023-02-11T07:27:56;5.50;99.90
10905;DHT22;5505;51.450;9.254;2023-02-11T07:30:42;6.70;99.90
10905;DHT22;5505;51.450;9.254;2023-02-11T07:33:29;4.80;99.90
10905;DHT22;5505;51.450;9.254;2023-02-11T07:36:17;4.80;99.90
10905;DHT22;5505;51.450;9.254;2023-02-11T07:39:04;6.50;99.90
10905;DHT22;5505;51.450;9.254;2023-02-11T07:41:51;4.90;99.90
10905;DHT22;5505;51.450;9.254;2023-02-11T07:44:37;4.90;99.90
10905;DHT22;5505;51.450;9.254;2023-02-11T07:47:24;4.90;99.90
10905;DHT22;5505;51.450;9.254;2023-02-11T07:50:11;4.80;99.90
10905;DHT22;5505;51.450;9.254;2023-02-11T07:52:59;4.90;99.90
10905;DHT22;5505;51.450;9.254;2023-02-11T07:55:47;4.90;99.90
10905;DHT22;5505;51.450;9.254;2023-02-11T07:58:34;4.90;99.90
10905;DHT22;5505;51.450;9.254;2023-02-11T08:01:23;4.90;99.90
10905;DHT22;5505;51.450;9.254;2023-02-11T08:04:12;4.90;99.90
10905;DHT22;5505;51.450;9.254;2023-02-11T08:06:59;4.90;99.90
10905;DHT22;5505;51.450;9.254;2023-02-11T08:09:47;4.90;99.90
10905;DHT22;5505;51.450;9.254;2023-02-11T08:12:34;4.90;99.90
10905;DHT22;5505;51.450;9.254;2023-02-11T08:15:21;4.90;99.90
10905;DHT22;5505;51.450;9.254;2023-02-11T08:18:07;4.90;99.90
10905;DHT22;5505;51.450;9.254;2023-02-11T08:20:54;4.90;99.90
10905;DHT22;5505;51.450;9.254;2023-02-11T08:23:42;4.90;99.90
10905;DHT22;5505;51.450;9.254;2023-02-11T08:26:31;4.90;99.90
10905;DHT22;5505;51.450;9.254;2023-02-11T08:29:19;5.00;99.90
10905;DHT22;5505;51.450;9.254;2023-02-11T08:32:06;5.00;99.90
10905;DHT22;5505;51.450;9.254;2023-02-11T08:34:53;5.10;99.90
10905;DHT22;5505;51.450;9.254;2023-02-11T08:37:39;5.10;99.90
10905;DHT22;5505;51.450;9.254;2023-02-11T08:40:27;5.10;99.90
10905;DHT22;5505;51.450;9.254;2023-02-11T08:43:15;5.10;99.90
10905;DHT22;5505;51.450;9.254;2023-02-11T08:46:02;5.10;99.90
10905;DHT22;5505;51.450;9.254;2023-02-11T08:48:50;5.20;99.90
10905;DHT22;5505;51.450;9.254;2023-02-11T08:51:37;5.30;99.90
10905;DHT22;5505;51.450;9.254;2023-02-11T08:54:23;5.30;99.90
10905;DHT22;5505;51.450;9.254;2023-02-11T08:57:10;6.80;99.90
10905;DHT22;5505;51.450;9.254;2023-02-11T08:59:58;5.40;99.90
10905;DHT22;5505;51.450;9.254;2023-02-11T09:02:45;5.50;99.90
10905;DHT22;5505;51.450;9.254;2023-02-11T09:05:32;5.50;99.90
10905;DHT22;5505;51.450;9.254;2023-02-11T09:08:19;5.60;99.90
10905;DHT22;5505;51.450;9.254;2023-02-11T09:11:06;5.60;99.90
10905;DHT22;5505;51.450;9.254;2023-02-11T09:13:53;5.70;99.90
10905;DHT22;5505;51.450;9.254;2023-02-11T09:16:42;5.80;99.90
10905;DHT22;5505;51.450;9.254;2023-02-11T09:19:29;5.80;99.90
10905;DHT22;5505;51.450;9.254;2023-02-11T09:22:15;6.30;99.90
10905;DHT22;5505;51.450;9.254;2023-02-11T09:25:02;6.00;99.90
10905;DHT22;5505;51.450;9.254;2023-02-11T09:27:49;6.00;99.90
10905;DHT22;5505;51.450;9.254;2023-02-11T09:30:38;6.00;99.90
10905;DHT22;5505;51.450;9.254;2023-02-11T09:33:26;7.60;99.90
10905;DHT22;5505;51.450;9.254;2023-02-11T09:36:14;6.20;99.90
10905;DHT22;5505;51.450;9.254;2023-02-11T09:39:04;6.20;99.90
10905;DHT22;5505;51.450;9.254;2023-02-11T09:45:02;6.30;99.90
10905;DHT22;5505;51.450;9.254;2023-02-11T09:47:53;6.40;99.90
10905;DHT22;5505;51.450;9.254;2023-02-11T09:50:44;6.90;99.90
10905;DHT22;5505;51.450;9.254;2023-02-11T09:53:40;6.40;99.90
10905;DHT22;5505;51.450;9.254;2023-02-11T09:56:27;4.40;99.90
10905;DHT22;5505;51.450;9.254;2023-02-11T09:59:15;8.10;99.90
10905;DHT22;5505;51.450;9.254;2023-02-11T10:02:05;6.50;99.90
10905;DHT22;5505;51.450;9.254;2023-02-11T10:05:19;6.50;99.90
10905;DHT22;5505;51.450;9.254;2023-02-11T10:08:12;6.60;99.90
10905;DHT22;5505;51.450;9.254;2023-02-11T10:11:05;6.60;99.90
10905;DHT22;5505;51.450;9.254;2023-02-11T10:14:00;6.70;99.90
10905;DHT22;5505;51.450;9.254;2023-02-11T10:16:57;6.70;99.90
10905;DHT22;5505;51.450;9.254;2023-02-11T10:19:58;6.70;99.90
10905;DHT22;5505;51.450;9.254;2023-02-11T10:22:49;6.80;99.90
10905;DHT22;5505;51.450;9.254;2023-02-11T10:25:42;6.80;99.90
10905;DHT22;5505;51.450;9.254;2023-02-11T10:28:32;6.70;99.90
10905;DHT22;5505;51.450;9.254;2023-02-11T10:31:23;6.80;99.90
10905;DHT22;5505;51.450;9.254;2023-02-11T10:34:13;6.80;99.90
10905;DHT22;5505;51.450;9.254;2023-02-11T10:37:00;7.00;99.90
10905;DHT22;5505;51.450;9.254;2023-02-11T10:39:46;7.80;99.90
10905;DHT22;5505;51.450;9.254;2023-02-11T10:42:35;7.00;99.90
10905;DHT22;5505;51.450;9.254;2023-02-11T10:45:27;6.80;99.90
10905;DHT22;5505;51.450;9.254;2023-02-11T10:48:38;6.80;99.90
10905;DHT22;5505;51.450;9.254;2023-02-11T10:51:27;6.90;99.90
10905;DHT22;5505;51.450;9.254;2023-02-11T10:54:17;6.80;99.90
10905;DHT22;5505;51.450;9.254;2023-02-11T10:57:05;6.80;99.90
10905;DHT22;5505;51.450;9.254;2023-02-11T10:59:58;7.40;99.90
10905;DHT22;5505;51.450;9.254;2023-02-11T11:02:52;6.90;99.90
10905;DHT22;5505;51.450;9.254;2023-02-11T11:05:46;6.90;99.90
10905;DHT22;5505;51.450;9.254;2023-02-11T11:08:39;6.90;99.90
10905;DHT22;5505;51.450;9.254;2023-02-11T11:11:27;6.90;99.90
10905;DHT22;5505;51.450;9.254;2023-02-11T11:14:18;7.20;99.90
10905;DHT22;5505;51.450;9.254;2023-02-11T11:17:17;6.90;99.90
10905;DHT22;5505;51.450;9.254;2023-02-11T11:20:18;7.00;99.90
10905;DHT22;5505;51.450;9.254;2023-02-11T11:23:14;6.90;99.90
10905;DHT22;5505;51.450;9.254;2023-02-11T11:26:05;7.00;99.90
10905;DHT22;5505;51.450;9.254;2023-02-11T11:28:57;7.00;99.90
10905;DHT22;5505;51.450;9.254;2023-02-11T11:31:48;7.00;99.90
10905;DHT22;5505;51.450;9.254;2023-02-11T11:34:38;7.00;99.90
10905;DHT22;5505;51.450;9.254;2023-02-11T11:37:28;7.00;99.90
10905;DHT22;5505;51.450;9.254;2023-02-11T11:40:22;7.00;99.90
10905;DHT22;5505;51.450;9.254;2023-02-11T11:43:17;7.00;99.90
10905;DHT22;5505;51.450;9.254;2023-02-11T11:46:06;7.10;99.90
10905;DHT22;5505;51.450;9.254;2023-02-11T11:49:19;7.10;99.90
10905;DHT22;5505;51.450;9.254;2023-02-11T11:52:17;8.80;99.90
10905;DHT22;5505;51.450;9.254;2023-02-11T11:55:13;8.90;99.90
10905;DHT22;5505;51.450;9.254;2023-02-11T11:58:01;8.40;99.90
10905;DHT22;5505;51.450;9.254;2023-02-11T12:00:53;7.30;99.90
10905;DHT22;5505;51.450;9.254;2023-02-11T12:04:12;7.30;99.90
10905;DHT22;5505;51.450;9.254;2023-02-11T12:07:13;7.30;99.90
10905;DHT22;5505;51.450;9.254;2023-02-11T12:10:27;7.30;99.90
10905;DHT22;5505;51.450;9.254;2023-02-11T12:13:23;7.20;99.90
10905;DHT22;5505;51.450;9.254;2023-02-11T12:16:19;7.20;99.90
10905;DHT22;5505;51.450;9.254;2023-02-11T12:22:43;7.20;99.90
10905;DHT22;5505;51.450;9.254;2023-02-11T12:25:38;7.20;99.90
10905;DHT22;5505;51.450;9.254;2023-02-11T12:28:34;7.10;99.90
10905;DHT22;5505;51.450;9.254;2023-02-11T12:31:32;7.20;99.90
10905;DHT22;5505;51.450;9.254;2023-02-11T12:34:35;7.20;99.90
10905;DHT22;5505;51.450;9.254;2023-02-11T12:37:36;7.40;99.90
10905;DHT22;5505;51.450;9.254;2023-02-11T12:40:37;7.20;99.90
10905;DHT22;5505;51.450;9.254;2023-02-11T12:43:33;7.10;99.90
10905;DHT22;5505;51.450;9.254;2023-02-11T12:46:42;7.10;99.90
10905;DHT22;5505;51.450;9.254;2023-02-11T12:49:46;7.10;99.90
10905;DHT22;5505;51.450;9.254;2023-02-11T12:52:49;7.10;99.90
10905;DHT22;5505;51.450;9.254;2023-02-11T12:55:43;7.10;99.90
10905;DHT22;5505;51.450;9.254;2023-02-11T12:58:34;7.10;99.90
10905;DHT22;5505;51.450;9.254;2023-02-11T13:01:25;7.10;99.90
10905;DHT22;5505;51.450;9.254;2023-02-11T13:04:16;7.10;99.90
10905;DHT22;5505;51.450;9.254;2023-02-11T13:07:11;7.40;99.90
10905;DHT22;5505;51.450;9.254;2023-02-11T13:10:03;7.20;99.90
10905;DHT22;5505;51.450;9.254;2023-02-11T13:12:54;7.60;99.90
10905;DHT22;5505;51.450;9.254;2023-02-11T13:16:02;7.20;99.90
10905;DHT22;5505;51.450;9.254;2023-02-11T13:18:55;7.20;99.90
10905;DHT22;5505;51.450;9.254;2023-02-11T13:21:59;7.20;99.90
10905;DHT22;5505;51.450;9.254;2023-02-11T13:24:52;7.20;99.90
10905;DHT22;5505;51.450;9.254;2023-02-11T13:27:47;7.30;99.90
10905;DHT22;5505;51.450;9.254;2023-02-11T13:30:44;7.20;99.90
10905;DHT22;5505;51.450;9.254;2023-02-11T13:33:36;7.30;99.90
10905;DHT22;5505;51.450;9.254;2023-02-11T13:36:25;7.30;99.90
10905;DHT22;5505;51.450;9.254;2023-02-11T13:39:19;7.30;99.90
10905;DHT22;5505;51.450;9.254;2023-02-11T13:42:14;7.40;99.90
10905;DHT22;5505;51.450;9.254;2023-02-11T13:45:16;7.60;99.90
10905;DHT22;5505;51.450;9.254;2023-02-11T13:48:06;7.50;99.90
10905;DHT22;5505;51.450;9.254;2023-02-11T13:51:03;7.80;99.90
10905;DHT22;5505;51.450;9.254;2023-02-11T13:53:53;9.00;99.90
10905;DHT22;5505;51.450;9.254;2023-02-11T13:56:41;7.40;99.90
10905;DHT22;5505;51.450;9.254;2023-02-11T13:59:44;7.50;99.90
10905;DHT22;5505;51.450;9.254;2023-02-11T14:02:32;7.40;99.90
10905;DHT22;5505;51.450;9.254;2023-02-11T14:06:15;7.50;99.90
10905;DHT22;5505;51.450;9.254;2023-02-11T14:09:35;7.40;99.90
10905;DHT22;5505;51.450;9.254;2023-02-11T14:12:33;8.30;99.90
10905;DHT22;5505;51.450;9.254;2023-02-11T14:15:25;7.40;99.90
10905;DHT22;5505;51.450;9.254;2023-02-11T14:18:36;7.40;99.90
10905;DHT22;5505;51.450;9.254;2023-02-11T14:21:31;8.00;99.90
10905;DHT22;5505;51.450;9.254;2023-02-11T14:24:48;7.40;99.90
10905;DHT22;5505;51.450;9.254;2023-02-11T14:27:41;7.40;99.90
10905;DHT22;5505;51.450;9.254;2023-02-11T14:30:41;7.40;99.90
10905;DHT22;5505;51.450;9.254;2023-02-11T14:33:59;7.40;99.90
10905;DHT22;5505;51.450;9.254;2023-02-11T14:37:06;8.30;99.90
10905;DHT22;5505;51.450;9.254;2023-02-11T14:40:06;7.40;99.90
10905;DHT22;5505;51.450;9.254;2023-02-11T14:42:56;7.40;99.90
10905;DHT22;5505;51.450;9.254;2023-02-11T14:45:51;9.10;99.90
10905;DHT22;5505;51.450;9.254;2023-02-11T14:48:43;7.40;99.90
10905;DHT22;5505;51.450;9.254;2023-02-11T14:51:33;7.40;99.90
10905;DHT22;5505;51.450;9.254;2023-02-11T14:54:25;7.40;99.90
10905;DHT22;5505;51.450;9.254;2023-02-11T14:57:14;7.30;99.90
10905;DHT22;5505;51.450;9.254;2023-02-11T15:00:04;7.10;99.90
10905;DHT22;5505;51.450;9.254;2023-02-11T15:02:51;7.30;99.90
10905;DHT22;5505;51.450;9.254;2023-02-11T15:05:39;8.40;99.90
10905;DHT22;5505;51.450;9.254;2023-02-11T15:08:27;7.40;99.90
10905;DHT22;5505;51.450;9.254;2023-02-11T15:11:19;7.30;99.90
10905;DHT22;5505;51.450;9.254;2023-02-11T15:14:09;7.30;99.90
10905;DHT22;5505;51.450;9.254;2023-02-11T15:16:59;7.30;99.90
10905;DHT22;5505;51.450;9.254;2023-02-11T15:19:48;7.30;99.90
10905;DHT22;5505;51.450;9.254;2023-02-11T15:22:37;7.30;99.90
10905;DHT22;5505;51.450;9.254;2023-02-11T15:25:24;7.20;99.90
10905;DHT22;5505;51.450;9.254;2023-02-11T15:28:20;7.20;99.90
10905;DHT22;5505;51.450;9.254;2023-02-11T15:31:14;7.20;99.90
10905;DHT22;5505;51.450;9.254;2023-02-11T15:34:06;7.40;99.90
10905;DHT22;5505;51.450;9.254;2023-02-11T15:36:53;7.40;99.90
10905;DHT22;5505;51.450;9.254;2023-02-11T15:39:42;7.20;99.90
10905;DHT22;5505;51.450;9.254;2023-02-11T15:42:29;7.20;99.90
10905;DHT22;5505;51.450;9.254;2023-02-11T15:45:23;7.20;99.90
10905;DHT22;5505;51.450;9.254;2023-02-11T15:48:15;7.20;99.90
10905;DHT22;5505;51.450;9.254;2023-02-11T15:51:09;7.20;99.90
10905;DHT22;5505;51.450;9.254;2023-02-11T15:53:59;7.70;99.90
10905;DHT22;5505;51.450;9.254;2023-02-11T15:56:49;7.20;99.90
10905;DHT22;5505;51.450;9.254;2023-02-11T15:59:38;7.60;99.90
10905;DHT22;5505;51.450;9.254;2023-02-11T16:02:30;9.00;99.90
10905;DHT22;5505;51.450;9.254;2023-02-11T16:05:27;7.20;99.90
10905;DHT22;5505;51.450;9.254;2023-02-11T16:08:22;7.10;99.90
10905;DHT22;5505;51.450;9.254;2023-02-11T16:11:23;7.10;99.90
10905;DHT22;5505;51.450;9.254;2023-02-11T16:14:22;7.10;99.90
10905;DHT22;5505;51.450;9.254;2023-02-11T16:17:11;7.20;99.90
10905;DHT22;5505;51.450;9.254;2023-02-11T16:19:59;7.60;99.90
10905;DHT22;5505;51.450;9.254;2023-02-11T16:22:46;7.10;99.90
10905;DHT22;5505;51.450;9.254;2023-02-11T16:25:34;7.10;99.90
10905;DHT22;5505;51.450;9.254;2023-02-11T16:28:21;7.10;99.90
10905;DHT22;5505;51.450;9.254;2023-02-11T16:31:08;7.10;99.90
10905;DHT22;5505;51.450;9.254;2023-02-11T16:33:55;7.10;99.90
10905;DHT22;5505;51.450;9.254;2023-02-11T16:36:43;7.20;99.90
10905;DHT22;5505;51.450;9.254;2023-02-11T16:39:30;7.00;99.90
10905;DHT22;5505;51.450;9.254;2023-02-11T16:42:17;7.00;99.90
10905;DHT22;5505;51.450;9.254;2023-02-11T16:45:04;7.10;99.90
10905;DHT22;5505;51.450;9.254;2023-02-11T16:47:51;7.00;99.90
10905;DHT22;5505;51.450;9.254;2023-02-11T16:50:43;7.00;99.90
10905;DHT22;5505;51.450;9.254;2023-02-11T16:53:31;7.00;99.90
10905;DHT22;5505;51.450;9.254;2023-02-11T16:56:18;7.00;99.90
10905;DHT22;5505;51.450;9.254;2023-02-11T16:59:04;7.00;99.90
10905;DHT22;5505;51.450;9.254;2023-02-11T17:01:52;7.00;99.90
10905;DHT22;5505;51.450;9.254;2023-02-11T17:04:40;6.90;99.90
10905;DHT22;5505;51.450;9.254;2023-02-11T17:07:27;7.00;99.90
10905;DHT22;5505;51.450;9.254;2023-02-11T17:10:17;8.00;99.90
10905;DHT22;5505;51.450;9.254;2023-02-11T17:13:04;7.00;99.90
10905;DHT22;5505;51.450;9.254;2023-02-11T17:15:51;7.00;99.90
10905;DHT22;5505;51.450;9.254;2023-02-11T17:18:37;7.00;99.90
10905;DHT22;5505;51.450;9.254;2023-02-11T17:21:24;7.00;99.90
10905;DHT22;5505;51.450;9.254;2023-02-11T17:24:11;7.00;99.90
10905;DHT22;5505;51.450;9.254;2023-02-11T17:27:00;7.00;99.90
10905;DHT22;5505;51.450;9.254;2023-02-11T17:29:46;7.00;99.90
10905;DHT22;5505;51.450;9.254;2023-02-11T17:32:33;7.00;99.90
10905;DHT22;5505;51.450;9.254;2023-02-11T17:35:20;7.00;99.90
10905;DHT22;5505;51.450;9.254;2023-02-11T17:38:07;7.00;99.90
10905;DHT22;5505;51.450;9.254;2023-02-11T17:40:57;6.90;99.90
10905;DHT22;5505;51.450;9.254;2023-02-11T17:43:45;6.90;99.90
10905;DHT22;5505;51.450;9.254;2023-02-11T17:46:33;6.90;99.90
10905;DHT22;5505;51.450;9.254;2023-02-11T17:49:20;6.90;99.90
10905;DHT22;5505;51.450;9.254;2023-02-11T17:52:07;7.10;99.90
10905;DHT22;5505;51.450;9.254;2023-02-11T17:54:54;6.90;99.90
10905;DHT22;5505;51.450;9.254;2023-02-11T17:57:42;6.90;99.90
10905;DHT22;5505;51.450;9.254;2023-02-11T18:00:30;7.00;99.90
10905;DHT22;5505;51.450;9.254;2023-02-11T18:03:17;7.00;99.90
10905;DHT22;5505;51.450;9.254;2023-02-11T18:06:05;8.80;99.90
10905;DHT22;5505;51.450;9.254;2023-02-11T18:08:52;7.10;99.90
10905;DHT22;5505;51.450;9.254;2023-02-11T18:11:41;8.70;99.90
10905;DHT22;5505;51.450;9.254;2023-02-11T18:14:28;7.20;99.90
10905;DHT22;5505;51.450;9.254;2023-02-11T18:17:16;7.10;99.90
10905;DHT22;5505;51.450;9.254;2023-02-11T18:20:04;7.10;99.90
10905;DHT22;5505;51.450;9.254;2023-02-11T18:22:51;6.20;99.90
10905;DHT22;5505;51.450;9.254;2023-02-11T18:25:40;7.00;99.90
10905;DHT22;5505;51.450;9.254;2023-02-11T18:28:28;7.10;99.90
10905;DHT22;5505;51.450;9.254;2023-02-11T18:31:16;8.70;99.90
10905;DHT22;5505;51.450;9.254;2023-02-11T18:34:05;8.20;99.90
10905;DHT22;5505;51.450;9.254;2023-02-11T18:36:52;7.10;99.90
10905;DHT22;5505;51.450;9.254;2023-02-11T18:39:39;7.10;99.90
10905;DHT22;5505;51.450;9.254;2023-02-11T18:42:26;7.20;99.90
10905;DHT22;5505;51.450;9.254;2023-02-11T18:45:13;7.20;99.90
10905;DHT22;5505;51.450;9.254;2023-02-11T18:48:00;7.20;99.90